Time;durP1;ratioP1;P1;durP2;ratioP2;P2;SDS_P1;SDS_P2;PMS_P1;PMS_P2;Temp;Humidity;BMP_temperature;BMP_pressure;BME280_temperature;BME280_humidity;BME280_pressure;Samples;Min_cycle;Max_cycle;Signal;HPM_P1;HPM_P2
2022/02/24 00:00:54;;;;;;;6.00;1.00;;;;;;;4.87;71.93;101038.18;108132;1277;59634;-79
2022/02/24 00:03:20;;;;;;;3.50;0.90;;;;;;;4.85;72.14;101033.75;108191;1277;61449;-79
2022/02/24 00:05:47;;;;;;;3.70;0.90;;;;;;;4.83;72.34;101027.48;108164;1277;60518;-79
2022/02/24 00:08:14;;;;;;;3.90;1.10;;;;;;;4.80;72.25;101023.31;108076;1277;58589;-79
2022/02/24 00:10:41;;;;;;;6.50;1.30;;;;;;;4.77;72.25;101019.78;108144;1276;72379;-79
2022/02/24 00:13:08;;;;;;;4.80;1.30;;;;;;;4.75;72.25;101016.10;108160;1277;72914;-79
2022/02/24 00:15:34;;;;;;;3.10;1.10;;;;;;;4.71;72.63;101012.75;108154;1277;61409;-79
2022/02/24 00:18:03;;;;;;;4.90;1.10;;;;;;;4.65;72.86;101009.17;108208;1277;61585;-79
2022/02/24 00:20:30;;;;;;;8.30;2.10;;;;;;;4.61;72.98;101006.38;108206;1277;76123;-79
2022/02/24 00:22:56;;;;;;;5.10;1.70;;;;;;;4.56;72.85;100999.42;108205;1277;59365;-79
2022/02/24 00:25:23;;;;;;;7.30;1.80;;;;;;;4.51;73.38;100999.89;108221;1277;59529;-79
2022/02/24 00:27:49;;;;;;;5.10;1.00;;;;;;;4.47;73.16;100996.35;108167;1277;59011;-78
2022/02/24 00:30:15;;;;;;;8.20;1.40;;;;;;;4.44;73.50;100991.66;108168;1277;59162;-79
2022/02/24 00:32:42;;;;;;;6.20;1.30;;;;;;;4.42;73.69;100984.97;108198;1277;59038;-79
2022/02/24 00:35:11;;;;;;;9.80;1.60;;;;;;;4.41;73.79;100983.98;108221;1277;59717;-79
2022/02/24 00:37:37;;;;;;;4.60;1.20;;;;;;;4.41;73.92;100978.42;108153;1277;73096;-79
2022/02/24 00:40:04;;;;;;;3.20;0.70;;;;;;;4.42;73.94;100981.80;108188;1277;62134;-79
2022/02/24 00:42:31;;;;;;;5.30;1.20;;;;;;;4.45;73.93;100977.02;108185;1277;60430;-79
2022/02/24 00:44:57;;;;;;;7.90;1.20;;;;;;;4.49;74.24;100979.67;108189;1277;74933;-80
2022/02/24 00:47:24;;;;;;;2.80;1.00;;;;;;;4.57;73.94;100977.83;108162;1277;59117;-79
2022/02/24 00:49:50;;;;;;;4.30;1.40;;;;;;;4.64;73.77;100967.57;108049;1277;59695;-79
2022/02/24 00:52:17;;;;;;;3.70;1.00;;;;;;;4.72;73.77;100962.04;108184;1277;59159;-79
2022/02/24 00:54:45;;;;;;;5.20;1.10;;;;;;;4.78;73.51;100954.28;108046;1277;60445;-79
2022/02/24 00:57:15;;;;;;;2.60;1.20;;;;;;;4.84;73.49;100949.76;108146;1277;75836;-79
2022/02/24 00:59:42;;;;;;;8.70;1.30;;;;;;;4.89;73.33;100946.33;108214;1277;59167;-78
2022/02/24 01:02:09;;;;;;;2.80;1.20;;;;;;;4.94;73.54;100939.98;108118;1277;59062;-78
2022/02/24 01:04:36;;;;;;;9.10;1.40;;;;;;;4.98;73.36;100939.66;108150;1277;61414;-78
2022/02/24 01:07:02;;;;;;;5.30;1.30;;;;;;;5.01;73.27;100939.60;108140;1277;59088;-79
2022/02/24 01:09:29;;;;;;;6.70;1.30;;;;;;;5.03;73.25;100934.83;108078;1277;76227;-78
2022/02/24 01:11:56;;;;;;;5.30;1.50;;;;;;;5.06;73.09;100934.88;108172;1276;71452;-78
2022/02/24 01:14:22;;;;;;;5.60;1.50;;;;;;;5.08;72.92;100931.19;108181;1276;58700;-78
2022/02/24 01:16:49;;;;;;;6.20;1.00;;;;;;;5.11;73.01;100925.58;108145;1276;59190;-78
2022/02/24 01:19:15;;;;;;;2.10;1.00;;;;;;;5.12;72.85;100921.74;108199;1277;59146;-79
2022/02/24 01:21:42;;;;;;;6.00;1.20;;;;;;;5.14;73.02;100923.52;108214;1277;74908;-78
2022/02/24 01:24:08;;;;;;;3.10;1.20;;;;;;;5.14;72.88;100925.27;108190;1277;59406;-79
2022/02/24 01:26:35;;;;;;;2.30;1.20;;;;;;;5.15;73.21;100923.63;108146;1277;72910;-79
2022/02/24 01:29:01;;;;;;;4.80;1.10;;;;;;;5.16;73.01;100915.15;108209;1277;62710;-78
2022/02/24 01:31:28;;;;;;;2.90;1.20;;;;;;;5.17;72.90;100908.21;108215;1275;60289;-78
2022/02/24 01:33:54;;;;;;;1.70;0.70;;;;;;;5.17;72.91;100902.42;108202;1277;75774;-78
2022/02/24 01:36:23;;;;;;;3.90;1.00;;;;;;;5.18;73.11;100902.14;108186;1276;71119;-78
2022/02/24 01:38:50;;;;;;;3.70;1.10;;;;;;;5.17;72.97;100895.52;108233;1277;74131;-78
2022/02/24 01:41:16;;;;;;;5.80;1.10;;;;;;;5.18;73.02;100888.44;108149;1277;59397;-78
2022/02/24 01:43:44;;;;;;;7.10;1.20;;;;;;;5.19;72.90;100885.73;108147;1277;59092;-79
2022/02/24 01:46:11;;;;;;;4.60;1.30;;;;;;;5.20;73.13;100879.14;108147;1277;76006;-79
2022/02/24 01:48:38;;;;;;;2.80;0.90;;;;;;;5.20;73.22;100877.90;108047;1277;72352;-79
2022/02/24 01:51:09;;;;;;;5.70;1.20;;;;;;;5.21;73.17;100880.48;108169;1277;59547;-79
2022/02/24 01:53:36;;;;;;;5.60;1.40;;;;;;;5.21;72.91;100873.41;108105;1277;60990;-78
2022/02/24 01:56:07;;;;;;;6.60;1.10;;;;;;;5.23;73.03;100871.92;108199;1277;60743;-78
2022/02/24 01:58:34;;;;;;;5.30;1.30;;;;;;;5.23;73.01;100866.60;108212;1277;76060;-79
2022/02/24 02:01:00;;;;;;;6.60;1.40;;;;;;;5.25;72.69;100861.30;108119;1277;71493;-78
2022/02/24 02:03:27;;;;;;;3.90;1.40;;;;;;;5.32;72.12;100857.59;108193;1276;73164;-79
2022/02/24 02:05:59;;;;;;;1.90;0.80;;;;;;;5.38;72.11;100857.44;108100;1277;60886;-79
2022/02/24 02:08:27;;;;;;;2.50;0.50;;;;;;;5.43;71.72;100853.29;108170;1277;59645;-78
2022/02/24 02:10:54;;;;;;;5.80;1.20;;;;;;;5.48;71.40;100849.10;108194;1277;76788;-79
2022/02/24 02:13:21;;;;;;;1.70;0.70;;;;;;;5.53;71.27;100838.86;108175;1277;71232;-78
2022/02/24 02:15:48;;;;;;;3.90;1.40;;;;;;;5.57;70.86;100833.92;108134;1277;73393;-79
2022/02/24 02:18:14;;;;;;;4.70;1.30;;;;;;;5.62;70.48;100831.77;108014;1278;62416;-79
2022/02/24 02:20:41;;;;;;;6.10;1.30;;;;;;;5.65;70.28;100830.02;108143;1277;59111;-79
2022/02/24 02:23:07;;;;;;;4.80;1.00;;;;;;;5.69;70.03;100827.93;108131;1277;59395;-79
2022/02/24 02:25:37;;;;;;;4.10;1.00;;;;;;;5.73;69.87;100821.61;108173;1276;71322;-79
2022/02/24 02:28:03;;;;;;;2.00;0.80;;;;;;;5.77;69.69;100818.52;108181;1277;73266;-79
2022/02/24 02:30:31;;;;;;;3.80;1.10;;;;;;;5.80;69.56;100813.11;108176;1277;61256;-79
2022/02/24 02:32:58;;;;;;;1.30;0.70;;;;;;;5.83;69.50;100808.96;108036;1277;61232;-79
2022/02/24 02:35:26;;;;;;;4.30;0.90;;;;;;;5.86;69.08;100803.29;108110;1277;74862;-78
2022/02/24 02:37:53;;;;;;;2.70;1.20;;;;;;;5.88;68.93;100804.66;108194;1277;71032;-79
2022/02/24 02:40:20;;;;;;;2.00;0.80;;;;;;;5.89;68.97;100797.68;108172;1277;71728;-79
2022/02/24 02:42:47;;;;;;;3.20;0.90;;;;;;;5.91;68.87;100791.23;108148;1276;61818;-79
2022/02/24 02:45:13;;;;;;;1.50;0.60;;;;;;;5.91;68.90;100787.64;108276;1276;59112;-78
2022/02/24 02:47:42;;;;;;;3.40;1.00;;;;;;;5.92;68.73;100784.76;108215;1277;74692;-79
2022/02/24 02:50:10;;;;;;;3.70;0.80;;;;;;;5.93;68.73;100776.64;108217;1276;71309;-79
2022/02/24 02:52:42;;;;;;;2.50;1.00;;;;;;;5.94;68.75;100771.98;108177;1277;74202;-79
2022/02/24 02:55:10;;;;;;;4.60;1.10;;;;;;;5.94;68.93;100765.30;108026;1277;60374;-79
2022/02/24 02:57:39;;;;;;;7.40;1.50;;;;;;;5.93;69.08;100760.43;108154;1277;60197;-79
2022/02/24 03:00:08;;;;;;;2.00;1.10;;;;;;;5.93;69.15;100760.45;108101;1278;74949;-79
2022/02/24 03:02:35;;;;;;;4.00;0.70;;;;;;;5.93;69.11;100760.96;107956;1277;71385;-78
2022/02/24 03:05:02;;;;;;;2.20;0.90;;;;;;;5.94;69.19;100757.02;108204;1277;74046;-79
2022/02/24 03:07:28;;;;;;;6.00;1.30;;;;;;;5.95;69.19;100757.86;108043;1277;61122;-78
2022/02/24 03:09:55;;;;;;;5.00;1.00;;;;;;;5.94;69.40;100753.21;108223;1277;59463;-79
2022/02/24 03:12:21;;;;;;;5.30;1.00;;;;;;;5.94;69.45;100751.59;108165;1277;59872;-79
2022/02/24 03:14:48;;;;;;;5.60;0.90;;;;;;;5.94;69.47;100751.63;108219;1277;71491;-78
2022/02/24 03:17:16;;;;;;;2.80;0.70;;;;;;;5.93;69.48;100748.54;108188;1277;72887;-79
2022/02/24 03:19:42;;;;;;;3.40;1.60;;;;;;;5.93;69.58;100742.05;108223;1277;59034;-79
2022/02/24 03:22:12;;;;;;;2.00;0.70;;;;;;;5.92;69.72;100734.44;108118;1277;61392;-79
2022/02/24 03:24:38;;;;;;;5.50;1.40;;;;;;;5.91;69.81;100735.88;108152;1277;75902;-79
2022/02/24 03:27:05;;;;;;;2.90;1.00;;;;;;;5.90;69.95;100729.98;108061;1278;72448;-79
2022/02/24 03:29:33;;;;;;;3.30;1.10;;;;;;;5.89;69.88;100726.73;108072;1278;73020;-79
2022/02/24 03:32:00;;;;;;;3.50;1.00;;;;;;;5.89;70.12;100725.58;108182;1277;61357;-79
2022/02/24 03:34:27;;;;;;;3.70;0.80;;;;;;;5.88;70.18;100720.55;108261;1277;61625;-79
2022/02/24 03:36:54;;;;;;;2.60;1.00;;;;;;;5.88;70.16;100718.80;108058;1278;75772;-79
2022/02/24 03:39:21;;;;;;;1.80;0.80;;;;;;;5.88;70.18;100717.70;108207;1277;71320;-80
2022/02/24 03:41:47;;;;;;;3.70;1.10;;;;;;;5.90;70.01;100715.60;108064;1277;58459;-79
2022/02/24 03:44:14;;;;;;;4.60;1.10;;;;;;;5.90;70.16;100714.17;108182;1277;59299;-80
2022/02/24 03:46:40;;;;;;;3.70;1.90;;;;;;;5.92;70.26;100714.70;108164;1277;59076;-79
2022/02/24 03:49:07;;;;;;;3.80;1.30;;;;;;;5.94;70.22;100718.60;108246;1277;59408;-79
2022/02/24 03:51:33;;;;;;;3.50;0.90;;;;;;;5.95;70.22;100713.41;108169;1277;59176;-79
2022/02/24 03:54:00;;;;;;;4.30;1.10;;;;;;;5.98;70.42;100709.30;108003;1277;59083;-79
2022/02/24 03:56:27;;;;;;;2.50;1.20;;;;;;;5.99;70.30;100703.91;108115;1277;61549;-78
2022/02/24 03:58:53;;;;;;;3.00;1.10;;;;;;;6.01;70.22;100704.56;108195;1277;59087;-78
2022/02/24 04:01:19;;;;;;;6.80;1.30;;;;;;;6.03;69.98;100700.77;108159;1277;59285;-79
2022/02/24 04:03:46;;;;;;;2.40;0.80;;;;;;;6.06;69.87;100701.64;107917;1280;72624;-78
2022/02/24 04:06:13;;;;;;;5.20;1.50;;;;;;;6.08;69.90;100697.59;108173;1277;59878;-78
2022/02/24 04:08:40;;;;;;;3.20;1.20;;;;;;;6.11;69.76;100699.27;108223;1277;59578;-78
2022/02/24 04:11:09;;;;;;;2.10;1.10;;;;;;;6.14;69.63;100694.98;108146;1276;60798;-79
2022/02/24 04:13:35;;;;;;;3.40;0.90;;;;;;;6.17;69.69;100690.64;108018;1277;75982;-78
2022/02/24 04:16:10;;;;;;;3.00;1.00;;;;;;;6.19;69.47;100682.42;108184;1274;71169;-78
2022/02/24 04:18:37;;;;;;;4.70;1.00;;;;;;;6.19;69.51;100684.29;108151;1277;73747;-78
2022/02/24 04:21:09;;;;;;;2.20;0.70;;;;;;;6.22;69.46;100680.55;108196;1277;61122;-78
2022/02/24 04:23:35;;;;;;;3.30;1.00;;;;;;;6.22;69.56;100673.86;108143;1276;61643;-78
2022/02/24 04:26:02;;;;;;;5.00;1.60;;;;;;;6.20;69.65;100672.47;108180;1277;59107;-78
2022/02/24 04:28:28;;;;;;;4.40;0.80;;;;;;;6.19;69.91;100674.46;108133;1277;59936;-78
2022/02/24 04:30:55;;;;;;;4.90;1.20;;;;;;;6.19;69.89;100675.52;108140;1277;59729;-78
2022/02/24 04:33:21;;;;;;;2.80;0.90;;;;;;;6.19;69.90;100671.67;108133;1277;59617;-78
2022/02/24 04:35:48;;;;;;;5.10;1.30;;;;;;;6.19;70.21;100668.91;108230;1277;59089;-79
2022/02/24 04:38:14;;;;;;;3.30;0.90;;;;;;;6.21;69.87;100665.16;108064;1277;59633;-78
2022/02/24 04:40:41;;;;;;;3.10;0.90;;;;;;;6.23;70.00;100658.32;108068;1277;60573;-78
2022/02/24 04:43:11;;;;;;;10.60;1.60;;;;;;;6.24;70.06;100652.70;108183;1277;59068;-78
2022/02/24 04:45:37;;;;;;;5.00;1.40;;;;;;;6.27;69.76;100644.89;108185;1277;61118;-79
2022/02/24 04:48:04;;;;;;;7.60;2.00;;;;;;;6.33;69.80;100643.10;108077;1277;59144;-80
2022/02/24 04:50:30;;;;;;;3.30;1.10;;;;;;;6.39;69.39;100643.27;108241;1276;74708;-78
2022/02/24 04:52:56;;;;;;;4.20;1.80;;;;;;;6.44;69.13;100639.70;108217;1276;59213;-78
2022/02/24 04:55:23;;;;;;;6.80;1.20;;;;;;;6.51;68.77;100637.16;108180;1277;59518;-78
2022/02/24 04:57:50;;;;;;;6.30;1.80;;;;;;;6.56;68.72;100633.04;108153;1277;61009;-78
2022/02/24 05:00:16;;;;;;;3.20;1.30;;;;;;;6.60;68.44;100625.05;108253;1277;60569;-78
2022/02/24 05:02:43;;;;;;;4.10;1.30;;;;;;;6.63;68.33;100621.89;108195;1277;75875;-78
2022/02/24 05:05:10;;;;;;;5.60;1.30;;;;;;;6.66;68.22;100618.27;108187;1277;72351;-78
2022/02/24 05:07:37;;;;;;;5.50;1.10;;;;;;;6.69;68.08;100615.52;108161;1277;74529;-78
2022/02/24 05:10:04;;;;;;;2.80;1.20;;;;;;;6.71;67.91;100611.13;108191;1277;59946;-78
2022/02/24 05:12:31;;;;;;;4.10;1.30;;;;;;;6.72;68.16;100615.25;108207;1277;60393;-79
2022/02/24 05:14:57;;;;;;;2.90;1.30;;;;;;;6.71;68.20;100612.10;108261;1277;59314;-78
2022/02/24 05:17:24;;;;;;;5.00;1.40;;;;;;;6.72;68.08;100615.25;108173;1277;59131;-80
2022/02/24 05:19:50;;;;;;;2.30;1.10;;;;;;;6.72;67.83;100613.28;108113;1277;73465;-79
2022/02/24 05:22:17;;;;;;;6.80;1.30;;;;;;;6.73;67.74;100606.10;108194;1276;59100;-79
2022/02/24 05:24:43;;;;;;;2.50;1.50;;;;;;;6.75;67.74;100603.48;108150;1277;59910;-79
2022/02/24 05:27:11;;;;;;;3.90;1.30;;;;;;;6.76;67.77;100599.70;108022;1277;75323;-79
2022/02/24 05:29:37;;;;;;;8.70;1.40;;;;;;;6.77;67.68;100604.75;108267;1277;59083;-79
2022/02/24 05:32:04;;;;;;;2.00;1.10;;;;;;;6.78;67.67;100601.30;108062;1278;59545;-79
2022/02/24 05:34:31;;;;;;;5.00;1.30;;;;;;;6.78;67.30;100592.66;108235;1277;60765;-80
2022/02/24 05:36:57;;;;;;;3.00;0.90;;;;;;;6.79;67.08;100592.90;108071;1277;59139;-78
2022/02/24 05:39:24;;;;;;;2.30;1.00;;;;;;;6.82;66.83;100589.83;108244;1277;60104;-79
2022/02/24 05:41:50;;;;;;;7.10;1.80;;;;;;;6.83;66.69;100585.98;108180;1277;59147;-79
2022/02/24 05:44:16;;;;;;;5.40;1.20;;;;;;;6.84;66.94;100588.02;108195;1276;59402;-78
2022/02/24 05:46:44;;;;;;;7.40;1.40;;;;;;;6.84;66.95;100586.61;108134;1277;60863;-79
2022/02/24 05:49:12;;;;;;;4.70;1.10;;;;;;;6.84;66.75;100583.27;108020;1278;59337;-79
2022/02/24 05:51:38;;;;;;;4.00;1.40;;;;;;;6.87;66.75;100580.20;108194;1277;75971;-79
2022/02/24 05:54:05;;;;;;;4.50;1.10;;;;;;;6.87;66.93;100575.89;108027;1277;71409;-79
2022/02/24 05:56:34;;;;;;;4.30;1.40;;;;;;;6.87;66.68;100574.16;108182;1277;74004;-79
2022/02/24 05:59:00;;;;;;;6.80;1.40;;;;;;;6.89;66.64;100576.98;108187;1277;59129;-79
2022/02/24 06:01:27;;;;;;;4.20;1.70;;;;;;;6.91;66.45;100576.08;108160;1277;59161;-79
2022/02/24 06:03:53;;;;;;;9.90;1.70;;;;;;;6.92;66.36;100576.64;108267;1277;76262;-79
2022/02/24 06:06:20;;;;;;;6.50;1.60;;;;;;;6.94;66.44;100575.08;108220;1276;74657;-79
2022/02/24 06:08:48;;;;;;;4.90;1.50;;;;;;;6.96;66.30;100576.14;108238;1277;73755;-79
2022/02/24 06:11:15;;;;;;;6.00;1.20;;;;;;;6.98;66.16;100579.46;108182;1277;59065;-79
2022/02/24 06:13:42;;;;;;;4.60;1.70;;;;;;;6.99;66.33;100584.05;108118;1277;60267;-79
2022/02/24 06:16:11;;;;;;;4.10;1.50;;;;;;;6.99;66.27;100580.75;108127;1278;59538;-79
2022/02/24 06:18:38;;;;;;;4.50;1.60;;;;;;;6.98;66.36;100578.53;108231;1277;71400;-80
2022/02/24 06:21:10;;;;;;;6.50;2.30;;;;;;;7.00;66.24;100579.61;108184;1276;72951;-79
2022/02/24 06:23:37;;;;;;;4.60;1.50;;;;;;;7.00;66.67;100581.88;107980;1280;59809;-76
2022/02/24 06:26:03;;;;;;;5.60;1.20;;;;;;;7.00;66.70;100582.87;108191;1277;59762;-76
2022/02/24 06:28:37;;;;;;;3.40;1.50;;;;;;;7.04;66.35;100580.08;108097;1278;74973;-76
2022/02/24 06:31:10;;;;;;;5.40;2.00;;;;;;;7.07;66.34;100577.47;108153;1277;70580;-77
2022/02/24 06:33:37;;;;;;;3.00;1.40;;;;;;;7.08;66.45;100572.77;108264;1277;73922;-76
2022/02/24 06:36:13;;;;;;;7.80;1.40;;;;;;;7.09;66.56;100568.06;108081;1279;58511;-77
2022/02/24 06:38:39;;;;;;;4.20;1.40;;;;;;;7.11;66.14;100566.50;108284;1277;60563;-77
2022/02/24 06:41:11;;;;;;;5.20;1.70;;;;;;;7.13;66.38;100566.34;108353;1277;59784;-77
2022/02/24 06:43:38;;;;;;;3.60;1.50;;;;;;;7.13;66.38;100564.73;108303;1277;72331;-77
2022/02/24 06:46:10;;;;;;;4.60;1.50;;;;;;;7.12;66.56;100566.53;108304;1277;59370;-76
2022/02/24 06:48:38;;;;;;;3.60;1.50;;;;;;;7.13;66.85;100555.42;108276;1277;61474;-77
2022/02/24 06:51:10;;;;;;;4.70;1.60;;;;;;;7.13;66.72;100551.86;108335;1277;58466;-76
2022/02/24 06:53:36;;;;;;;6.30;1.60;;;;;;;7.13;66.95;100547.62;108232;1277;76201;-76
2022/02/24 06:56:03;;;;;;;5.60;1.50;;;;;;;7.14;66.61;100549.47;108250;1277;70679;-76
2022/02/24 06:58:30;;;;;;;2.50;1.10;;;;;;;7.15;66.91;100550.59;108244;1277;74128;-76
2022/02/24 07:00:58;;;;;;;3.60;1.70;;;;;;;7.16;67.18;100548.58;108278;1277;59059;-76
2022/02/24 07:03:25;;;;;;;4.90;1.50;;;;;;;7.16;67.14;100544.36;108108;1279;61371;-76
2022/02/24 07:05:52;;;;;;;1.80;1.20;;;;;;;7.17;67.17;100537.94;108113;1278;76407;-76
2022/02/24 07:08:18;;;;;;;4.50;1.40;;;;;;;7.18;67.24;100537.64;108308;1277;59114;-76
2022/02/24 07:10:45;;;;;;;3.90;1.30;;;;;;;7.18;67.43;100536.09;108343;1277;59049;-76
2022/02/24 07:13:11;;;;;;;3.80;1.60;;;;;;;7.17;67.42;100535.32;108111;1278;59150;-76
2022/02/24 07:15:40;;;;;;;4.30;2.00;;;;;;;7.15;67.52;100531.06;108226;1277;60609;-76
2022/02/24 07:18:07;;;;;;;8.30;1.60;;;;;;;7.16;67.40;100533.84;108285;1277;74877;-76
2022/02/24 07:20:33;;;;;;;4.00;1.60;;;;;;;7.16;67.65;100533.84;108358;1277;59046;-76
2022/02/24 07:23:00;;;;;;;5.40;1.40;;;;;;;7.15;67.61;100530.50;108312;1277;59281;-76
2022/02/24 07:25:26;;;;;;;4.40;1.30;;;;;;;7.16;67.35;100533.45;108312;1277;62480;-76
2022/02/24 07:27:53;;;;;;;3.60;1.90;;;;;;;7.19;67.81;100525.64;108245;1277;59217;-76
2022/02/24 07:30:20;;;;;;;5.70;1.60;;;;;;;7.20;67.70;100522.88;108309;1277;74887;-76
2022/02/24 07:32:46;;;;;;;4.10;1.50;;;;;;;7.21;67.76;100519.95;108270;1277;71556;-76
2022/02/24 07:35:13;;;;;;;4.40;1.60;;;;;;;7.22;67.35;100517.22;108237;1277;71970;-76
2022/02/24 07:37:43;;;;;;;10.00;2.10;;;;;;;7.23;67.32;100519.04;108263;1276;62524;-76
2022/02/24 07:40:12;;;;;;;3.90;1.40;;;;;;;7.24;67.60;100513.43;107914;1277;320037;-76
2022/02/24 07:42:38;;;;;;;6.20;1.70;;;;;;;7.25;67.76;100510.58;108185;1277;75891;-76
2022/02/24 07:45:07;;;;;;;4.20;1.40;;;;;;;7.25;67.77;100505.80;108345;1277;72501;-78
2022/02/24 07:47:33;;;;;;;6.00;1.90;;;;;;;7.26;67.54;100501.11;108085;1277;73138;-76
2022/02/24 07:50:00;;;;;;;9.30;1.60;;;;;;;7.26;67.62;100504.48;108313;1277;58973;-76
2022/02/24 07:52:27;;;;;;;5.80;1.80;;;;;;;7.26;67.61;100502.36;108195;1277;58397;-76
2022/02/24 07:54:54;;;;;;;5.90;1.60;;;;;;;7.26;67.68;100499.66;108292;1277;76205;-76
2022/02/24 07:57:22;;;;;;;3.00;1.90;;;;;;;7.27;67.66;100496.04;108361;1277;72400;-76
2022/02/24 07:59:48;;;;;;;4.50;2.00;;;;;;;7.28;67.54;100494.36;108334;1277;73043;-76
2022/02/24 08:02:16;;;;;;;3.60;1.60;;;;;;;7.30;67.52;100494.55;108290;1277;59938;-76
2022/02/24 08:04:45;;;;;;;7.60;1.60;;;;;;;7.30;67.69;100494.69;108272;1277;61735;-76
2022/02/24 08:07:12;;;;;;;5.60;2.60;;;;;;;7.32;67.53;100490.11;108157;1277;74678;-76
2022/02/24 08:09:39;;;;;;;4.80;1.40;;;;;;;7.32;67.75;100492.52;108332;1277;59477;-76
2022/02/24 08:14:52;;;;;;;5.40;1.60;;;;;;;7.32;67.72;100476.52;108345;1277;59814;-76
2022/02/24 08:17:22;;;;;;;6.10;1.60;;;;;;;7.32;67.51;100470.52;108175;1277;59455;-76
2022/02/24 08:19:49;;;;;;;4.60;1.40;;;;;;;7.33;67.66;100466.39;108315;1277;59599;-76
2022/02/24 08:22:16;;;;;;;5.60;1.30;;;;;;;7.35;67.58;100467.42;108359;1277;70907;-75
2022/02/24 08:24:42;;;;;;;8.30;1.60;;;;;;;7.37;67.61;100458.17;108300;1277;72987;-76
2022/02/24 08:27:09;;;;;;;5.50;1.60;;;;;;;7.38;67.89;100453.86;108211;1277;59104;-76
2022/02/24 08:29:36;;;;;;;5.00;1.20;;;;;;;7.40;67.81;100451.03;108119;1277;60615;-76
2022/02/24 08:32:02;;;;;;;2.80;1.30;;;;;;;7.41;67.76;100446.12;108131;1279;59026;-76
2022/02/24 08:34:29;;;;;;;3.80;1.20;;;;;;;7.43;67.76;100439.42;108145;1278;71657;-76
2022/02/24 08:36:55;;;;;;;6.00;1.80;;;;;;;7.46;67.77;100432.77;108328;1277;59048;-76
2022/02/24 08:39:24;;;;;;;5.90;1.50;;;;;;;7.51;67.50;100431.83;108269;1277;59310;-76
2022/02/24 08:41:51;;;;;;;2.70;1.00;;;;;;;7.61;67.51;100424.15;108335;1277;60397;-76
2022/02/24 08:44:18;;;;;;;5.40;1.50;;;;;;;7.70;67.30;100419.33;108290;1277;74942;-76
2022/02/24 08:46:45;;;;;;;4.70;1.40;;;;;;;7.80;67.13;100419.23;108342;1277;72511;-77
2022/02/24 08:49:12;;;;;;;4.50;1.40;;;;;;;7.89;66.91;100411.69;108294;1277;71782;-75
2022/02/24 08:51:40;;;;;;;3.40;1.20;;;;;;;7.97;66.71;100408.71;108328;1277;60435;-75
2022/02/24 08:54:06;;;;;;;3.80;1.20;;;;;;;8.04;66.55;100400.02;108234;1277;60282;-76
2022/02/24 08:56:33;;;;;;;3.20;0.90;;;;;;;8.10;66.53;100397.78;108265;1277;58925;-75
2022/02/24 08:58:59;;;;;;;5.90;1.70;;;;;;;8.14;66.97;100394.11;108085;1277;69439;-76
2022/02/24 09:01:26;;;;;;;3.60;1.10;;;;;;;8.15;67.36;100388.50;108338;1277;73369;-76
2022/02/24 09:03:53;;;;;;;6.80;1.40;;;;;;;8.13;67.96;100383.45;108087;1277;60864;-76
2022/02/24 09:06:19;;;;;;;7.20;1.60;;;;;;;8.12;68.21;100374.80;108119;1277;59709;-76
2022/02/24 09:08:46;;;;;;;7.60;2.20;;;;;;;8.11;68.11;100360.79;108311;1277;59842;-76
2022/02/24 09:11:12;;;;;;;5.80;1.40;;;;;;;8.11;68.26;100360.98;108392;1277;59016;-76
2022/02/24 09:13:41;;;;;;;5.20;1.80;;;;;;;8.11;68.32;100356.07;108092;1278;59124;-76
2022/02/24 09:16:14;;;;;;;6.70;1.40;;;;;;;8.11;68.10;100352.77;108163;1277;61443;-76
2022/02/24 09:18:40;;;;;;;3.60;1.10;;;;;;;8.11;67.97;100347.45;108101;1278;61615;-77
2022/02/24 09:21:13;;;;;;;7.30;1.60;;;;;;;8.15;68.16;100338.73;108214;1277;59223;-77
2022/02/24 09:23:43;;;;;;;5.00;1.20;;;;;;;8.21;68.21;100333.84;108288;1277;73784;-77
2022/02/24 09:26:12;;;;;;;4.80;1.50;;;;;;;8.26;67.90;100330.15;108285;1277;74297;-77
2022/02/24 09:28:39;;;;;;;4.60;1.30;;;;;;;8.30;67.30;100319.84;108344;1277;61716;-77
2022/02/24 09:31:15;;;;;;;4.50;1.00;;;;;;;8.33;67.84;100315.39;108309;1277;60521;-77
2022/02/24 09:33:41;;;;;;;3.40;1.10;;;;;;;8.39;67.31;100309.50;108314;1277;75661;-77
2022/02/24 09:36:14;;;;;;;5.10;1.30;;;;;;;8.45;66.99;100309.21;108095;1278;59241;-77
2022/02/24 09:38:41;;;;;;;3.40;1.00;;;;;;;8.51;66.69;100305.00;108341;1277;74108;-77
2022/02/24 09:41:14;;;;;;;2.80;1.20;;;;;;;8.61;66.39;100298.80;108204;1277;61335;-76
2022/02/24 09:43:41;;;;;;;4.80;1.20;;;;;;;8.68;65.17;100293.78;108365;1277;61617;-76
2022/02/24 09:46:13;;;;;;;4.30;1.20;;;;;;;8.74;64.48;100289.40;108270;1277;76223;-76
2022/02/24 09:48:42;;;;;;;3.50;1.30;;;;;;;8.80;64.02;100285.44;108121;1277;70579;-76
2022/02/24 09:51:17;;;;;;;6.10;1.60;;;;;;;8.84;63.52;100285.27;108097;1278;72927;-76
2022/02/24 09:53:46;;;;;;;5.00;1.20;;;;;;;8.93;63.08;100278.11;108157;1277;60622;-76
2022/02/24 09:56:19;;;;;;;5.40;1.60;;;;;;;9.04;62.44;100274.10;108104;1278;60546;-76
2022/02/24 09:58:47;;;;;;;8.30;2.20;;;;;;;9.13;62.31;100272.55;108313;1277;76388;-76
2022/02/24 10:01:15;;;;;;;5.60;2.10;;;;;;;9.22;62.43;100269.48;108090;1279;72678;-76
2022/02/24 10:03:46;;;;;;;6.60;2.10;;;;;;;9.29;61.76;100263.46;108065;1277;74179;-76
2022/02/24 10:06:15;;;;;;;7.70;2.80;;;;;;;9.33;61.85;100256.18;108055;1279;61446;-76
2022/02/24 10:08:43;;;;;;;5.90;2.70;;;;;;;9.32;61.29;100247.20;108359;1277;60248;-77
2022/02/24 10:11:25;;;;;;;3.80;1.40;;;;;;;9.32;61.05;100244.91;108258;1276;74073;-76
2022/02/24 10:13:57;;;;;;;4.10;1.10;;;;;;;9.33;61.43;100226.21;108135;1277;72764;-76
2022/02/24 10:16:27;;;;;;;3.60;1.20;;;;;;;9.32;61.22;100229.90;108277;1277;72931;-76
2022/02/24 10:18:55;;;;;;;5.20;1.30;;;;;;;9.32;61.22;100220.54;108295;1277;61932;-76
2022/02/24 10:21:22;;;;;;;5.50;1.40;;;;;;;9.34;61.24;100226.60;108162;1278;60793;-76
2022/02/24 10:23:51;;;;;;;6.10;1.30;;;;;;;9.35;61.50;100219.23;108323;1277;74850;-76
2022/02/24 10:26:18;;;;;;;2.70;1.20;;;;;;;9.34;61.34;100221.50;108290;1277;71378;-77
2022/02/24 10:28:50;;;;;;;3.80;1.20;;;;;;;9.32;61.00;100219.59;108061;1277;72949;-76
2022/02/24 10:31:22;;;;;;;10.70;1.20;;;;;;;9.33;60.79;100209.95;108259;1276;60414;-76
2022/02/24 10:34:07;;;;;;;6.10;1.80;;;;;;;9.35;61.07;100199.52;108211;1277;60677;-76
2022/02/24 10:36:36;;;;;;;7.70;1.20;;;;;;;9.36;60.61;100201.50;108216;1277;74853;-76
2022/02/24 10:39:09;;;;;;;3.80;1.00;;;;;;;9.38;60.85;100196.36;108301;1277;71571;-76
2022/02/24 10:41:38;;;;;;;6.90;1.40;;;;;;;9.41;60.12;100195.66;108268;1277;73918;-76
2022/02/24 10:44:22;;;;;;;5.60;1.70;;;;;;;9.47;60.39;100188.66;108291;1277;60687;-77
2022/02/24 10:47:04;;;;;;;3.90;1.30;;;;;;;9.52;60.27;100190.50;108075;1277;60596;-76
2022/02/24 10:49:38;;;;;;;5.10;1.70;;;;;;;9.58;60.25;100164.16;108228;1277;74897;-76
2022/02/24 10:52:10;;;;;;;5.10;1.60;;;;;;;9.64;60.18;100155.52;108111;1277;71368;-76
2022/02/24 10:54:36;;;;;;;3.60;1.30;;;;;;;9.68;59.96;100143.93;108293;1277;72895;-76
2022/02/24 10:57:17;;;;;;;5.20;1.70;;;;;;;9.71;60.05;100139.34;108337;1277;59092;-76
2022/02/24 10:59:43;;;;;;;6.80;1.40;;;;;;;9.78;59.98;100138.88;108183;1277;60052;-76
2022/02/24 11:02:11;;;;;;;3.90;1.30;;;;;;;9.89;60.14;100127.37;108251;1277;73843;-76
2022/02/24 11:04:37;;;;;;;4.10;1.10;;;;;;;9.98;59.59;100122.83;108312;1277;72517;-76
2022/02/24 11:07:04;;;;;;;5.00;1.40;;;;;;;10.05;58.61;100110.04;108133;1279;72932;-76
2022/02/24 11:09:32;;;;;;;5.20;1.50;;;;;;;10.12;58.43;100104.73;108315;1277;59302;-76
2022/02/24 11:12:05;;;;;;;7.60;1.50;;;;;;;10.19;58.03;100099.60;108210;1277;60609;-76
2022/02/24 11:14:34;;;;;;;4.30;1.10;;;;;;;10.26;57.68;100093.36;108295;1276;74934;-76
2022/02/24 11:17:06;;;;;;;4.60;1.20;;;;;;;10.34;57.58;100087.77;108290;1277;71506;-76
2022/02/24 11:19:35;;;;;;;7.50;1.40;;;;;;;10.43;57.26;100081.00;107979;1280;72965;-77
2022/02/24 11:22:03;;;;;;;3.10;1.20;;;;;;;10.49;56.54;100070.20;108225;1277;61705;-76
2022/02/24 11:24:30;;;;;;;2.90;1.40;;;;;;;10.55;56.59;100071.90;108110;1278;60543;-76
2022/02/24 11:27:33;;;;;;;3.40;1.00;;;;;;;10.55;56.71;100068.83;108148;1277;75979;-77
2022/02/24 11:30:13;;;;;;;3.30;1.30;;;;;;;10.49;57.16;100056.48;107774;1279;72438;-77